createdAt,value
2019-02-26T00:01:46.070Z,0.00
2019-02-26T00:03:41.695Z,0.00
2019-02-26T00:05:41.928Z,0.00
2019-02-26T00:07:41.587Z,0.00
2019-02-26T00:09:41.810Z,0.00
2019-02-26T00:11:41.927Z,0.00
2019-02-26T00:13:41.729Z,0.00
2019-02-26T00:15:43.252Z,0.00
2019-02-26T00:17:43.723Z,0.00
2019-02-26T00:19:41.723Z,0.00
2019-02-26T00:21:43.020Z,0.00
2019-02-26T00:23:44.285Z,0.00
2019-02-26T00:25:41.698Z,0.00
2019-02-26T00:27:41.859Z,0.00
2019-02-26T00:29:41.688Z,0.00
2019-02-26T00:31:43.422Z,0.00
2019-02-26T00:33:41.743Z,0.00
2019-02-26T00:35:43.413Z,0.00
2019-02-26T00:37:43.633Z,0.00
2019-02-26T00:39:41.756Z,0.00
2019-02-26T00:41:41.806Z,0.00
2019-02-26T00:43:41.915Z,0.00
2019-02-26T00:45:41.662Z,0.00
2019-02-26T00:47:43.332Z,0.00
2019-02-26T00:49:43.711Z,0.00
2019-02-26T00:51:45.568Z,0.00
2019-02-26T00:53:41.663Z,0.00
2019-02-26T00:55:41.865Z,0.00
2019-02-26T00:57:43.020Z,0.00
2019-02-26T00:59:43.604Z,0.00
2019-02-26T01:01:44.110Z,0.00
2019-02-26T01:03:44.356Z,0.00
2019-02-26T01:05:43.243Z,0.00
2019-02-26T01:07:43.849Z,0.00
2019-02-26T01:09:41.837Z,0.00
2019-02-26T01:11:42.928Z,0.00
2019-02-26T01:13:41.906Z,0.00
2019-02-26T01:15:41.901Z,0.00
2019-02-26T01:17:42.407Z,0.00
2019-02-26T01:19:43.071Z,0.00
2019-02-26T01:21:42.080Z,0.00
2019-02-26T01:23:41.926Z,0.00
2019-02-26T01:25:41.736Z,0.00
2019-02-26T01:27:43.558Z,0.00
2019-02-26T01:29:41.962Z,0.00
2019-02-26T01:31:41.794Z,0.00
2019-02-26T01:33:41.832Z,0.00
2019-02-26T01:35:41.757Z,0.00
2019-02-26T01:37:42.009Z,0.00
2019-02-26T01:39:42.963Z,0.00
2019-02-26T01:41:45.524Z,0.00
2019-02-26T01:43:42.146Z,0.00
2019-02-26T01:45:43.830Z,0.00
2019-02-26T01:47:42.834Z,0.00
2019-02-26T01:49:41.937Z,0.00
2019-02-26T01:51:42.828Z,0.00
2019-02-26T01:53:42.734Z,0.00
2019-02-26T01:55:43.456Z,0.00
2019-02-26T01:57:43.467Z,0.00
2019-02-26T01:59:41.932Z,0.00
2019-02-26T02:01:44.129Z,0.00
2019-02-26T02:03:44.022Z,0.00
2019-02-26T02:05:43.221Z,0.00
2019-02-26T02:07:41.720Z,0.00
2019-02-26T02:09:42.023Z,0.00
2019-02-26T02:11:42.130Z,0.00
2019-02-26T02:13:43.354Z,0.00
2019-02-26T02:15:42.241Z,0.00
2019-02-26T02:17:41.836Z,0.00
2019-02-26T02:19:41.977Z,0.00
2019-02-26T02:21:41.720Z,0.00
2019-02-26T02:23:42.567Z,0.00
2019-02-26T02:25:43.335Z,0.00
2019-02-26T02:27:41.992Z,0.00
2019-02-26T02:29:44.142Z,0.00
2019-02-26T02:31:42.217Z,0.00
2019-02-26T02:33:41.774Z,0.00
2019-02-26T02:35:42.248Z,0.00
2019-02-26T02:37:42.049Z,0.00
2019-02-26T02:39:42.060Z,0.00
2019-02-26T02:41:44.622Z,0.00
2019-02-26T02:43:42.086Z,0.00
2019-02-26T02:45:41.995Z,0.00
2019-02-26T02:47:43.580Z,0.00
2019-02-26T02:49:44.246Z,0.00
2019-02-26T02:51:41.836Z,0.00
2019-02-26T02:53:41.836Z,0.00
2019-02-26T02:55:45.823Z,0.00
2019-02-26T02:57:42.000Z,0.00
2019-02-26T02:59:42.425Z,0.00
2019-02-26T03:01:43.088Z,0.00
2019-02-26T03:03:42.106Z,0.00
2019-02-26T03:05:43.807Z,0.00
2019-02-26T03:07:42.880Z,0.00
2019-02-26T03:09:43.237Z,0.00
2019-02-26T03:11:44.032Z,0.00
2019-02-26T03:13:43.101Z,0.00
2019-02-26T03:15:41.847Z,0.00
2019-02-26T03:17:41.899Z,0.00
2019-02-26T03:19:43.675Z,0.00
2019-02-26T03:21:42.576Z,0.00
2019-02-26T03:23:43.523Z,0.00
2019-02-26T03:25:44.288Z,0.00
2019-02-26T03:27:42.713Z,0.00
2019-02-26T03:29:41.848Z,0.00
2019-02-26T03:31:46.797Z,0.00
2019-02-26T03:33:42.073Z,0.00
2019-02-26T03:35:41.871Z,0.00
2019-02-26T03:37:41.842Z,0.00
2019-02-26T03:39:42.109Z,0.00
2019-02-26T03:41:43.169Z,0.00
2019-02-26T03:43:41.927Z,0.00
2019-02-26T03:45:41.966Z,0.00
2019-02-26T03:47:41.738Z,0.00
2019-02-26T03:49:42.366Z,0.00
2019-02-26T03:51:41.997Z,0.00
2019-02-26T03:53:43.661Z,0.00
2019-02-26T03:55:43.908Z,0.00
2019-02-26T03:57:46.976Z,0.00
2019-02-26T03:59:41.942Z,0.00
2019-02-26T04:01:42.358Z,0.00
2019-02-26T04:03:42.556Z,0.00
2019-02-26T04:05:42.136Z,0.00
2019-02-26T04:07:41.786Z,0.00
2019-02-26T04:09:44.247Z,0.00
2019-02-26T04:11:45.429Z,0.00
2019-02-26T04:13:43.299Z,0.00
2019-02-26T04:15:42.003Z,0.00
2019-02-26T04:17:42.297Z,0.00
2019-02-26T04:19:44.062Z,0.00
2019-02-26T04:21:42.276Z,0.00
2019-02-26T04:23:44.053Z,0.00
2019-02-26T04:25:41.796Z,0.00
2019-02-26T04:27:44.112Z,0.00
2019-02-26T04:29:43.670Z,0.00
2019-02-26T04:31:44.610Z,0.00
2019-02-26T04:33:42.084Z,0.00
2019-02-26T04:35:44.403Z,0.00
2019-02-26T04:37:42.470Z,0.00
2019-02-26T04:39:44.672Z,0.00
2019-02-26T04:41:42.182Z,0.00
2019-02-26T04:43:41.920Z,0.00
2019-02-26T04:45:42.214Z,0.00
2019-02-26T04:47:42.224Z,0.00
2019-02-26T04:49:42.888Z,0.00
2019-02-26T04:51:44.871Z,0.00
2019-02-26T04:53:41.823Z,0.00
2019-02-26T04:55:44.729Z,0.00
2019-02-26T04:57:42.592Z,0.00
2019-02-26T04:59:43.848Z,0.00
2019-02-26T05:01:44.121Z,0.00
2019-02-26T05:03:42.348Z,0.00
2019-02-26T05:05:41.808Z,0.00
2019-02-26T05:07:44.396Z,0.00
2019-02-26T05:09:42.238Z,0.00
2019-02-26T05:11:41.922Z,0.00
2019-02-26T05:13:41.855Z,0.00
2019-02-26T05:15:43.480Z,0.00
2019-02-26T05:17:41.884Z,0.00
2019-02-26T05:19:45.353Z,0.00
2019-02-26T05:21:42.051Z,0.00
2019-02-26T05:23:41.914Z,0.00
2019-02-26T05:25:43.021Z,0.00
2019-02-26T05:27:45.035Z,0.00
2019-02-26T05:29:43.007Z,0.00
2019-02-26T05:31:43.173Z,0.00
2019-02-26T05:33:41.810Z,0.00
2019-02-26T05:35:45.649Z,0.00
2019-02-26T05:37:42.094Z,0.00
2019-02-26T05:39:43.051Z,0.00
2019-02-26T05:41:42.062Z,0.00
2019-02-26T05:43:42.137Z,0.00
2019-02-26T05:45:41.935Z,0.00
2019-02-26T05:47:43.172Z,0.00
2019-02-26T05:49:45.347Z,0.00
2019-02-26T05:51:41.977Z,0.00
2019-02-26T05:53:42.032Z,0.00
2019-02-26T05:55:44.214Z,0.00
2019-02-26T05:57:41.748Z,0.00
2019-02-26T05:59:42.030Z,0.00
2019-02-26T06:01:43.726Z,0.00
2019-02-26T06:03:44.268Z,0.00
2019-02-26T06:05:45.776Z,0.00
2019-02-26T06:07:41.968Z,0.00
2019-02-26T06:09:41.977Z,0.00
2019-02-26T06:11:46.912Z,0.00
2019-02-26T06:13:43.174Z,0.00
2019-02-26T06:15:41.889Z,0.00
2019-02-26T06:17:43.378Z,0.00
2019-02-26T06:19:42.367Z,0.00
2019-02-26T06:21:44.076Z,0.00
2019-02-26T06:23:43.205Z,0.00
2019-02-26T06:25:41.761Z,0.00
2019-02-26T06:27:42.183Z,0.00
2019-02-26T06:29:41.788Z,0.00
2019-02-26T06:31:44.240Z,0.00
2019-02-26T06:33:43.694Z,0.00
2019-02-26T06:35:42.837Z,0.00
2019-02-26T06:37:42.138Z,0.00
2019-02-26T06:39:42.125Z,0.00
2019-02-26T06:41:44.172Z,0.00
2019-02-26T06:43:45.030Z,0.00
2019-02-26T06:45:43.563Z,0.00
2019-02-26T06:47:42.397Z,0.00
2019-02-26T06:49:43.209Z,0.00
2019-02-26T06:51:42.982Z,0.00
2019-02-26T06:53:45.051Z,0.00
2019-02-26T06:55:41.933Z,0.00
2019-02-26T06:57:44.117Z,0.00
2019-02-26T06:59:41.809Z,0.00
2019-02-26T07:01:42.191Z,0.00
2019-02-26T07:03:42.289Z,0.00
2019-02-26T07:05:46.092Z,0.00
2019-02-26T07:07:41.997Z,0.00
2019-02-26T07:09:43.713Z,0.00
2019-02-26T07:11:41.806Z,0.00
2019-02-26T07:13:43.964Z,0.00
2019-02-26T07:15:45.407Z,0.00
2019-02-26T07:17:42.976Z,0.00
2019-02-26T07:19:42.068Z,0.00
2019-02-26T07:21:43.413Z,0.00
2019-02-26T07:23:42.426Z,0.00
2019-02-26T07:25:44.004Z,0.00
2019-02-26T07:27:42.268Z,0.00
2019-02-26T07:29:44.377Z,0.00
2019-02-26T07:31:42.249Z,0.19
2019-02-26T07:33:42.458Z,0.04
2019-02-26T07:35:41.979Z,0.20
2019-02-26T07:37:41.973Z,0.19
2019-02-26T07:39:43.869Z,0.39
2019-02-26T07:41:42.311Z,0.05
2019-02-26T07:43:44.049Z,0.00
2019-02-26T07:45:42.434Z,0.01
2019-02-26T07:47:41.826Z,0.02
2019-02-26T07:49:42.175Z,0.00
2019-02-26T07:51:43.056Z,0.00
2019-02-26T07:53:48.493Z,0.00
2019-02-26T07:55:42.371Z,0.54
2019-02-26T07:57:44.876Z,0.26
2019-02-26T07:59:42.570Z,0.25
2019-02-26T08:01:43.107Z,0.66
2019-02-26T08:03:43.519Z,0.63
2019-02-26T08:05:41.938Z,0.42
2019-02-26T08:07:43.866Z,0.73
2019-02-26T08:09:42.066Z,0.59
2019-02-26T08:11:44.381Z,0.31
2019-02-26T08:13:42.088Z,0.86
2019-02-26T08:15:41.980Z,0.84
2019-02-26T08:17:45.618Z,0.50
2019-02-26T08:19:46.193Z,0.00
2019-02-26T08:21:42.138Z,0.27
2019-02-26T08:23:43.713Z,0.05
2019-02-26T08:25:42.052Z,0.00
2019-02-26T08:27:42.167Z,0.00
2019-02-26T08:29:42.173Z,0.00
2019-02-26T08:31:44.625Z,0.00
2019-02-26T08:33:42.094Z,1.05
2019-02-26T08:35:42.099Z,0.97
2019-02-26T08:37:41.913Z,0.94
2019-02-26T08:39:42.334Z,0.82
2019-02-26T08:41:42.093Z,0.71
2019-02-26T08:43:44.200Z,0.38
2019-02-26T08:45:41.895Z,0.87
2019-02-26T08:47:41.967Z,0.63
2019-02-26T08:49:43.468Z,0.70
2019-02-26T08:51:42.233Z,0.42
2019-02-26T08:53:42.009Z,0.52
2019-02-26T08:55:42.209Z,0.12
2019-02-26T08:57:42.025Z,0.84
2019-02-26T08:59:42.661Z,0.48
2019-02-26T09:01:41.944Z,0.40
2019-02-26T09:03:41.953Z,0.31
2019-02-26T09:05:41.885Z,0.30
2019-02-26T09:07:43.304Z,0.72
2019-02-26T09:09:42.198Z,0.34
2019-02-26T09:11:41.967Z,0.52
2019-02-26T09:13:43.872Z,0.21
2019-02-26T09:15:43.151Z,0.60
2019-02-26T09:17:42.167Z,0.63
2019-02-26T09:19:42.255Z,0.26
2019-02-26T09:21:44.361Z,0.12
2019-02-26T09:23:42.072Z,0.11
2019-02-26T09:25:42.075Z,0.42
2019-02-26T09:27:43.022Z,0.46
2019-02-26T09:29:48.234Z,0.47
2019-02-26T09:31:42.226Z,0.02
2019-02-26T09:33:43.584Z,1.13
2019-02-26T09:35:42.148Z,0.95
2019-02-26T09:37:42.849Z,1.60
2019-02-26T09:39:42.173Z,1.31
2019-02-26T09:41:43.346Z,0.90
2019-02-26T09:43:43.380Z,1.30
2019-02-26T09:45:43.583Z,0.59
2019-02-26T09:47:42.208Z,0.35
2019-02-26T09:49:42.646Z,1.49
2019-02-26T09:51:42.033Z,1.17
2019-02-26T09:53:42.251Z,0.82
2019-02-26T09:55:42.518Z,1.57
2019-02-26T09:57:42.386Z,0.54
2019-02-26T09:59:42.293Z,0.85
2019-02-26T10:01:42.873Z,0.90
2019-02-26T10:03:42.096Z,0.74
2019-02-26T10:05:42.294Z,0.83
2019-02-26T10:07:42.125Z,0.95
2019-02-26T10:09:45.984Z,1.45
2019-02-26T10:11:44.304Z,0.92
2019-02-26T10:13:44.264Z,0.46
2019-02-26T10:15:44.672Z,1.22
2019-02-26T10:17:42.698Z,0.60
2019-02-26T10:19:43.001Z,1.21
2019-02-26T10:21:43.264Z,0.25
2019-02-26T10:23:42.155Z,1.55
2019-02-26T10:25:42.648Z,1.00
2019-02-26T10:27:43.115Z,1.39
2019-02-26T10:29:44.963Z,0.65
2019-02-26T10:31:42.576Z,0.36
2019-02-26T10:33:44.018Z,0.75
2019-02-26T10:35:44.880Z,0.39
2019-02-26T10:37:43.590Z,1.56
2019-02-26T10:39:44.362Z,1.08
2019-02-26T10:41:44.140Z,0.65
2019-02-26T10:43:42.602Z,0.61
2019-02-26T10:45:44.915Z,0.56
2019-02-26T10:47:42.356Z,0.35
2019-02-26T10:49:44.390Z,0.13
2019-02-26T10:51:42.623Z,0.74
2019-02-26T10:53:42.154Z,0.46
2019-02-26T10:55:42.370Z,0.17
2019-02-26T10:57:42.045Z,0.58
2019-02-26T10:59:44.251Z,0.34
2019-02-26T11:01:42.311Z,1.57
2019-02-26T11:03:44.874Z,1.15
2019-02-26T11:05:43.174Z,0.57
2019-02-26T11:07:42.109Z,0.71
2019-02-26T11:09:44.718Z,0.91
2019-02-26T11:11:42.435Z,1.04
2019-02-26T11:13:43.509Z,0.89
2019-02-26T11:15:42.421Z,0.53
2019-02-26T11:17:43.932Z,1.11
2019-02-26T11:19:42.242Z,0.85
2019-02-26T11:21:42.229Z,1.10
2019-02-26T11:23:43.973Z,1.62
2019-02-26T11:25:42.599Z,1.50
2019-02-26T11:27:45.405Z,1.38
2019-02-26T11:29:42.297Z,0.96
2019-02-26T11:31:44.188Z,0.49
2019-02-26T11:33:42.295Z,0.37
2019-02-26T11:35:43.950Z,0.66
2019-02-26T11:37:42.435Z,1.29
2019-02-26T11:39:42.357Z,1.12
2019-02-26T11:41:42.576Z,0.67
2019-02-26T11:43:42.481Z,1.09
2019-02-26T11:45:44.441Z,1.14
2019-02-26T11:47:43.813Z,0.43
2019-02-26T11:49:44.133Z,1.55
2019-02-26T11:51:42.610Z,1.01
2019-02-26T11:53:43.448Z,1.15
2019-02-26T11:55:42.232Z,1.41
2019-02-26T11:57:43.170Z,1.15
2019-02-26T11:59:42.883Z,1.75
2019-02-26T12:01:42.381Z,0.74
2019-02-26T12:03:43.876Z,1.53
2019-02-26T12:05:42.607Z,1.34
2019-02-26T12:07:42.326Z,1.47
2019-02-26T12:09:43.307Z,1.21
2019-02-26T12:11:42.449Z,1.82
2019-02-26T12:13:44.267Z,1.02
2019-02-26T12:15:42.814Z,1.95
2019-02-26T12:17:42.444Z,1.76
2019-02-26T12:19:42.296Z,1.68
2019-02-26T12:21:42.191Z,1.58
2019-02-26T12:23:44.106Z,1.02
2019-02-26T12:25:42.220Z,1.48
2019-02-26T12:27:43.410Z,0.41
2019-02-26T12:29:43.613Z,0.51
2019-02-26T12:31:42.557Z,0.86
2019-02-26T12:33:42.364Z,1.76
2019-02-26T12:35:43.662Z,0.96
2019-02-26T12:37:42.628Z,0.22
2019-02-26T12:39:43.732Z,0.90
2019-02-26T12:41:45.391Z,1.10
2019-02-26T12:43:43.994Z,0.08
2019-02-26T12:45:42.224Z,0.30
2019-02-26T12:47:43.068Z,1.66
2019-02-26T12:49:44.994Z,0.76
2019-02-26T12:51:42.266Z,0.46
2019-02-26T12:53:44.131Z,0.77
2019-02-26T12:55:42.815Z,0.46
2019-02-26T12:57:43.288Z,0.75
2019-02-26T12:59:42.213Z,0.94
2019-02-26T13:01:45.345Z,0.51
2019-02-26T13:03:45.559Z,1.15
2019-02-26T13:05:45.457Z,0.63
2019-02-26T13:07:42.464Z,1.17
2019-02-26T13:09:50.447Z,0.79
2019-02-26T13:12:00.225Z,0.48
2019-02-26T13:13:42.314Z,1.15
2019-02-26T13:15:42.510Z,2.52
2019-02-26T13:17:44.600Z,0.59
2019-02-26T13:19:42.293Z,0.95
2019-02-26T13:21:43.025Z,1.40
2019-02-26T13:23:42.306Z,0.53
2019-02-26T13:25:42.570Z,0.39
2019-02-26T13:27:43.784Z,0.52
2019-02-26T13:29:47.493Z,1.66
2019-02-26T13:31:50.202Z,1.34
2019-02-26T13:33:42.715Z,1.18
2019-02-26T13:35:45.543Z,1.17
2019-02-26T13:37:42.632Z,0.66
2019-02-26T13:39:45.452Z,1.23
2019-02-26T13:41:42.562Z,0.95
2019-02-26T13:43:42.466Z,0.76
2019-02-26T13:45:42.421Z,0.87
2019-02-26T13:47:42.495Z,0.15
2019-02-26T13:49:42.301Z,0.48
2019-02-26T13:51:42.529Z,0.92
2019-02-26T13:53:42.607Z,0.70
2019-02-26T13:55:42.370Z,1.24
2019-02-26T13:57:42.554Z,0.70
2019-02-26T13:59:42.355Z,0.35
2019-02-26T14:01:42.671Z,0.44
2019-02-26T14:03:42.248Z,0.36
2019-02-26T14:05:42.610Z,1.46
2019-02-26T14:07:42.395Z,0.73
2019-02-26T14:09:42.374Z,1.28
2019-02-26T14:11:43.148Z,0.70
2019-02-26T14:13:42.291Z,0.90
2019-02-26T14:15:42.557Z,0.06
2019-02-26T14:17:42.358Z,0.70
2019-02-26T14:19:42.785Z,0.78
2019-02-26T14:21:42.770Z,1.06
2019-02-26T14:23:42.544Z,2.18
2019-02-26T14:25:42.510Z,1.22
2019-02-26T14:27:42.347Z,1.11
2019-02-26T14:29:42.398Z,1.36
2019-02-26T14:31:42.756Z,1.61
2019-02-26T14:33:42.576Z,1.16
2019-02-26T14:35:42.474Z,0.49
2019-02-26T14:37:42.486Z,0.89
2019-02-26T14:39:42.593Z,0.73
2019-02-26T14:41:42.811Z,0.52
2019-02-26T14:43:42.617Z,0.77
2019-02-26T14:45:42.632Z,0.61
2019-02-26T14:47:42.565Z,0.55
2019-02-26T14:49:42.662Z,0.73
2019-02-26T14:51:42.354Z,0.43
2019-02-26T14:53:42.363Z,0.56
2019-02-26T14:55:42.592Z,0.63
2019-02-26T14:57:42.379Z,0.40
2019-02-26T14:59:42.325Z,0.31
2019-02-26T15:01:42.528Z,0.46
2019-02-26T15:03:42.330Z,0.18
2019-02-26T15:05:42.504Z,1.20
2019-02-26T15:07:42.556Z,0.42
2019-02-26T15:09:42.564Z,0.19
2019-02-26T15:11:42.577Z,0.52
2019-02-26T15:13:42.756Z,0.69
2019-02-26T15:15:42.609Z,0.46
2019-02-26T15:17:42.614Z,0.60
2019-02-26T15:19:49.650Z,0.38
2019-02-26T15:21:42.951Z,0.94
2019-02-26T15:23:42.341Z,0.92
2019-02-26T15:25:42.563Z,0.73
2019-02-26T15:27:42.367Z,0.62
2019-02-26T15:29:42.301Z,0.47
2019-02-26T15:31:42.700Z,0.88
2019-02-26T15:33:42.822Z,0.57
2019-02-26T15:35:42.517Z,0.13
2019-02-26T15:37:42.736Z,0.08
2019-02-26T15:39:42.544Z,0.29
2019-02-26T15:41:42.965Z,0.29
2019-02-26T15:43:42.466Z,0.51
2019-02-26T15:45:51.565Z,0.08
2019-02-26T15:47:42.317Z,0.00
2019-02-26T15:49:43.008Z,0.00
2019-02-26T15:51:43.801Z,0.00
2019-02-26T15:53:42.720Z,0.05
2019-02-26T15:55:43.080Z,0.44
2019-02-26T15:57:42.722Z,0.01
2019-02-26T15:59:42.860Z,0.09
2019-02-26T16:01:42.592Z,0.02
2019-02-26T16:03:42.985Z,0.17
2019-02-26T16:05:42.503Z,0.01
2019-02-26T16:07:42.553Z,0.00
2019-02-26T16:09:42.893Z,0.00
2019-02-26T16:11:43.720Z,0.00
2019-02-26T16:13:42.495Z,0.00
2019-02-26T16:15:42.513Z,0.00
2019-02-26T16:17:42.627Z,0.00
2019-02-26T16:19:43.732Z,0.00
2019-02-26T16:21:42.760Z,0.00
2019-02-26T16:23:43.080Z,0.00
2019-02-26T16:25:42.340Z,0.00
2019-02-26T16:27:42.792Z,0.00
2019-02-26T16:29:42.391Z,0.16
2019-02-26T16:31:42.816Z,0.00
2019-02-26T16:33:46.437Z,0.00
2019-02-26T16:35:42.628Z,0.00
2019-02-26T16:37:42.852Z,0.00
2019-02-26T16:39:42.447Z,0.00
2019-02-26T16:41:42.387Z,0.00
2019-02-26T16:43:42.612Z,0.00
2019-02-26T16:45:42.585Z,0.00
2019-02-26T16:47:43.526Z,0.00
2019-02-26T16:49:42.718Z,0.00
2019-02-26T16:51:45.133Z,0.00
2019-02-26T16:53:42.334Z,0.00
2019-02-26T16:55:42.485Z,0.00
2019-02-26T16:57:42.482Z,0.00
2019-02-26T16:59:42.534Z,0.18
2019-02-26T17:01:42.580Z,0.53
2019-02-26T17:03:42.390Z,0.23
2019-02-26T17:05:42.602Z,0.15
2019-02-26T17:07:42.563Z,0.45
2019-02-26T17:09:42.544Z,0.16
2019-02-26T17:11:44.562Z,0.13
2019-02-26T17:13:44.118Z,0.36
2019-02-26T17:15:42.469Z,0.12
2019-02-26T17:17:42.782Z,0.12
2019-02-26T17:19:42.335Z,0.10
2019-02-26T17:21:42.389Z,0.34
2019-02-26T17:23:42.331Z,0.08
2019-02-26T17:25:42.615Z,0.00
2019-02-26T17:27:42.442Z,0.00
2019-02-26T17:29:43.261Z,0.00
2019-02-26T17:31:42.857Z,0.00
2019-02-26T17:33:44.694Z,0.00
2019-02-26T17:35:42.997Z,0.00
2019-02-26T17:37:42.897Z,0.00
2019-02-26T17:39:42.493Z,0.30
2019-02-26T17:41:44.794Z,0.00
2019-02-26T17:43:42.524Z,0.00
2019-02-26T17:45:43.554Z,0.15
2019-02-26T17:47:42.541Z,0.33
2019-02-26T17:49:45.838Z,0.40
2019-02-26T17:51:42.771Z,0.47
2019-02-26T17:53:42.996Z,0.14
2019-02-26T17:55:42.596Z,0.00
2019-02-26T17:57:42.758Z,0.00
2019-02-26T17:59:42.415Z,0.00
2019-02-26T18:01:42.988Z,0.00
2019-02-26T18:03:44.543Z,0.00
2019-02-26T18:05:50.953Z,0.00
2019-02-26T18:07:42.775Z,0.00
2019-02-26T18:09:42.842Z,0.00
2019-02-26T18:11:43.604Z,0.00
2019-02-26T18:13:43.012Z,0.00
2019-02-26T18:15:42.815Z,0.00
2019-02-26T18:17:43.025Z,0.00
2019-02-26T18:19:42.955Z,0.00
2019-02-26T18:21:44.047Z,0.00
2019-02-26T18:23:42.963Z,0.00
2019-02-26T18:25:43.214Z,0.00
2019-02-26T18:27:43.086Z,0.00
2019-02-26T18:29:43.097Z,0.00
2019-02-26T18:31:42.927Z,0.00
2019-02-26T18:33:43.126Z,0.00
2019-02-26T18:35:42.892Z,0.00
2019-02-26T18:37:46.445Z,0.00
2019-02-26T18:39:43.172Z,0.00
2019-02-26T18:41:50.532Z,0.00
2019-02-26T18:43:44.800Z,0.00
2019-02-26T18:45:42.993Z,0.00
2019-02-26T18:47:42.930Z,0.00
2019-02-26T18:49:43.028Z,0.00
2019-02-26T18:51:42.888Z,0.00
2019-02-26T18:53:44.593Z,0.00
2019-02-26T18:55:43.954Z,0.00
2019-02-26T18:57:43.676Z,0.00
2019-02-26T18:59:42.976Z,0.00
2019-02-26T19:01:43.042Z,0.00
2019-02-26T19:03:43.208Z,0.00
2019-02-26T19:05:43.211Z,0.00
2019-02-26T19:07:42.952Z,0.00
2019-02-26T19:09:44.987Z,0.00
2019-02-26T19:11:43.047Z,0.00
2019-02-26T19:13:42.852Z,0.00
2019-02-26T19:15:43.176Z,0.00
2019-02-26T19:17:43.183Z,0.00
2019-02-26T19:19:43.089Z,0.00
2019-02-26T19:21:43.200Z,0.00
2019-02-26T19:23:42.983Z,0.00
2019-02-26T19:25:43.088Z,0.00
2019-02-26T19:27:43.237Z,0.00
2019-02-26T19:29:43.046Z,0.00
2019-02-26T19:31:43.306Z,0.00
2019-02-26T19:33:43.195Z,0.00
2019-02-26T19:35:42.987Z,0.00
2019-02-26T19:37:42.866Z,0.00
2019-02-26T19:39:43.116Z,0.00
2019-02-26T19:41:45.232Z,0.00
2019-02-26T19:43:42.876Z,0.00
2019-02-26T19:45:44.826Z,0.00
2019-02-26T19:47:43.275Z,0.00
2019-02-26T19:49:42.919Z,0.00
2019-02-26T19:51:43.171Z,0.00
2019-02-26T19:53:42.677Z,0.00
2019-02-26T19:55:43.148Z,0.00
2019-02-26T19:57:42.918Z,0.00
2019-02-26T19:59:46.788Z,0.00
2019-02-26T20:01:43.118Z,0.00
2019-02-26T20:03:43.035Z,0.00
2019-02-26T20:05:45.972Z,0.00
2019-02-26T20:07:43.065Z,0.00
2019-02-26T20:09:43.070Z,0.00
2019-02-26T20:11:43.004Z,0.00
2019-02-26T20:13:42.832Z,0.00
2019-02-26T20:15:43.107Z,0.00
2019-02-26T20:17:42.707Z,0.00
2019-02-26T20:19:42.859Z,0.00
2019-02-26T20:21:43.147Z,0.00
2019-02-26T20:23:42.607Z,0.00
2019-02-26T20:25:43.315Z,0.00
2019-02-26T20:27:43.285Z,0.00
2019-02-26T20:29:43.300Z,0.00
2019-02-26T20:31:42.863Z,0.00
2019-02-26T20:33:42.701Z,0.00
2019-02-26T20:35:45.131Z,0.00
2019-02-26T20:37:42.576Z,0.00
2019-02-26T20:39:44.140Z,0.00
2019-02-26T20:41:42.741Z,0.00
2019-02-26T20:43:42.872Z,0.00
2019-02-26T20:45:42.580Z,0.00
2019-02-26T20:47:42.694Z,0.00
2019-02-26T20:49:43.650Z,0.00
2019-02-26T20:51:42.743Z,0.00
2019-02-26T20:53:42.924Z,0.00
2019-02-26T20:55:52.022Z,0.00
2019-02-26T20:57:42.542Z,0.00
2019-02-26T20:59:42.756Z,0.00
2019-02-26T21:01:42.974Z,0.00
2019-02-26T21:03:42.681Z,0.00
2019-02-26T21:05:44.637Z,0.00
2019-02-26T21:07:42.653Z,0.00
2019-02-26T21:09:42.712Z,0.00
2019-02-26T21:11:42.904Z,0.00
2019-02-26T21:13:42.872Z,0.00
2019-02-26T21:15:44.671Z,0.00
2019-02-26T21:17:42.661Z,0.00
2019-02-26T21:19:43.087Z,0.00
2019-02-26T21:21:42.677Z,0.00
2019-02-26T21:23:42.886Z,0.00
2019-02-26T21:25:44.449Z,0.00
2019-02-26T21:27:42.814Z,0.00
2019-02-26T21:29:42.775Z,0.00
2019-02-26T21:31:43.251Z,0.00
2019-02-26T21:33:42.609Z,0.00
2019-02-26T21:35:42.578Z,0.00
2019-02-26T21:37:42.677Z,0.00
2019-02-26T21:39:43.764Z,0.00
2019-02-26T21:41:43.158Z,0.00
2019-02-26T21:43:43.019Z,0.00
2019-02-26T21:45:44.470Z,0.00
2019-02-26T21:47:42.730Z,0.00
2019-02-26T21:49:42.930Z,0.00
2019-02-26T21:51:42.769Z,0.00
2019-02-26T21:53:42.699Z,0.00
2019-02-26T21:55:44.342Z,0.00
2019-02-26T21:57:42.950Z,0.00
2019-02-26T21:59:49.755Z,0.00
2019-02-26T22:01:45.818Z,0.00
2019-02-26T22:03:42.547Z,0.00
2019-02-26T22:05:42.626Z,0.00
2019-02-26T22:07:42.966Z,0.00
2019-02-26T22:09:42.860Z,0.00
2019-02-26T22:11:42.816Z,0.00
2019-02-26T22:13:42.840Z,0.00
2019-02-26T22:15:44.582Z,0.00
2019-02-26T22:17:42.592Z,0.00
2019-02-26T22:19:42.777Z,0.00
2019-02-26T22:21:42.818Z,0.00
2019-02-26T22:23:42.982Z,0.00
2019-02-26T22:25:42.825Z,0.00
2019-02-26T22:27:42.768Z,0.00
2019-02-26T22:29:42.662Z,0.00
2019-02-26T22:31:42.876Z,0.00
2019-02-26T22:33:43.431Z,0.00
2019-02-26T22:35:42.829Z,0.00
2019-02-26T22:37:42.706Z,0.00
2019-02-26T22:39:42.617Z,0.00
2019-02-26T22:41:43.048Z,0.00
2019-02-26T22:43:44.777Z,0.00
2019-02-26T22:45:42.555Z,0.00
2019-02-26T22:47:43.929Z,0.00
2019-02-26T22:49:42.885Z,0.00
2019-02-26T22:51:42.609Z,0.00
2019-02-26T22:53:43.046Z,0.00
2019-02-26T22:55:43.017Z,0.00
2019-02-26T22:57:43.042Z,0.00
2019-02-26T22:59:42.844Z,0.00
2019-02-26T23:01:42.918Z,0.00
2019-02-26T23:03:45.721Z,0.00
2019-02-26T23:05:42.671Z,0.00
2019-02-26T23:07:42.693Z,0.00
2019-02-26T23:09:43.099Z,0.00
2019-02-26T23:11:42.713Z,0.00
2019-02-26T23:13:42.925Z,0.00
2019-02-26T23:15:45.357Z,0.00
2019-02-26T23:17:42.942Z,0.00
2019-02-26T23:19:42.759Z,0.00
2019-02-26T23:21:42.966Z,0.00
2019-02-26T23:23:42.667Z,0.00
2019-02-26T23:25:42.889Z,0.00
2019-02-26T23:27:42.692Z,0.00
2019-02-26T23:29:42.917Z,0.00
2019-02-26T23:31:42.725Z,0.00
2019-02-26T23:33:42.942Z,0.00
2019-02-26T23:35:42.680Z,0.00
2019-02-26T23:37:42.962Z,0.00
2019-02-26T23:39:42.894Z,0.00
2019-02-26T23:41:42.913Z,0.00
2019-02-26T23:43:45.243Z,0.00
2019-02-26T23:45:42.758Z,0.00
2019-02-26T23:47:43.021Z,0.00
2019-02-26T23:49:44.895Z,0.00
2019-02-26T23:51:42.837Z,0.00
2019-02-26T23:53:42.641Z,0.00
2019-02-26T23:55:46.260Z,0.00
2019-02-26T23:57:42.717Z,0.00
2019-02-26T23:59:42.716Z,0.00
